Data for 01/13/2009

Time Sea-Level Adjusted Pressure Absolute Pressure Temperature Relative Humidity Dew Point   
(mb) (inHg) (mb) (inHg) (C) (F) (%) (C) (F)
00:05 1024 30.24 853 25.19 2.1 35.8 58 -5.3 22.5
00:10 1024 30.24 853 25.19 2 35.6 59 -5.3 22.5
00:15 1024 30.24 853 25.19 2 35.6 58 -5.3 22.4
00:20 1024 30.24 853 25.19 2 35.6 59 -5.2 22.6
00:25 1024 30.24 853 25.19 1.9 35.4 60 -5.2 22.7
00:30 1024 30.24 853 25.19 1.7 35.1 59 -5.5 22.2
00:35 1024 30.24 853 25.19 1.9 35.5 58 -5.4 22.3
00:40 1024 30.24 853 25.19 2 35.5 58 -5.3 22.4
00:45 1024 30.24 853 25.19 1.9 35.3 58 -5.4 22.2
00:50 1024 30.24 853 25.19 1.7 35.1 59 -5.3 22.4
00:55 1024 30.24 853 25.19 1.3 34.3 62 -5.3 22.5
01:00 1024 30.24 853 25.19 0.8 33.5 62 -5.6 22
01:05 1024 30.24 853 25.19 0.7 33.2 63 -5.6 22
01:10 1024 30.24 853 25.19 0.7 33.3 63 -5.6 22
01:15 1023 30.21 853 25.19 0.8 33.4 63 -5.5 22
01:20 1023 30.21 852 25.16 0.9 33.6 62 -5.5 22.1
01:25 1023 30.21 853 25.19 1 33.8 62 -5.5 22.1
01:30 1023 30.21 853 25.19 1.1 33.9 62 -5.5 22.1
01:35 1023 30.21 852 25.16 1 33.8 62 -5.5 22.1
01:40 1023 30.21 852 25.16 1 33.8 62 -5.5 22
01:45 1023 30.21 852 25.16 0.9 33.6 62 -5.6 21.9
01:50 1023 30.21 852 25.16 0.9 33.6 62 -5.6 21.9
01:55 1023 30.21 852 25.16 1.1 34 60 -5.8 21.5
02:00 1023 30.21 852 25.16 1.6 34.9 57 -6.1 21.1
02:05 1023 30.21 852 25.16 2.1 35.7 55 -6 21.2
02:10 1023 30.21 852 25.16 2.3 36.1 54 -6.1 21
02:15 1023 30.21 852 25.16 2.5 36.5 52 -6.3 20.6
02:20 1023 30.21 852 25.16 2.8 37 51 -6.4 20.5
02:25 1023 30.21 852 25.16 2.8 37 51 -6.3 20.6
02:30 1023 30.21 852 25.16 2.8 37 50 -6.6 20.1
02:35 1023 30.21 852 25.16 3 37.3 49 -6.7 20
02:40 1023 30.21 852 25.16 3 37.4 49 -6.6 20
02:45 1023 30.21 852 25.16 2.9 37.2 49 -6.8 19.8
02:50 1023 30.21 852 25.16 2.9 37.2 49 -6.9 19.6
02:55 1023 30.21 852 25.16 3 37.5 48 -6.9 19.7
03:00 1023 30.21 852 25.16 3.3 37.9 47 -6.8 19.7
03:05 1023 30.21 852 25.16 3.6 38.4 47 -6.8 19.8
03:10 1023 30.21 852 25.16 3.7 38.6 46 -6.8 19.7
03:15 1023 30.21 852 25.16 3.8 38.9 46 -6.6 20.1
03:20 1023 30.21 852 25.16 3.6 38.6 46 -6.8 19.7
03:25 1023 30.21 852 25.16 3.4 38.1 49 -6.4 20.4
03:30 1022 30.18 852 25.16 3.1 37.5 49 -6.7 20
03:35 1023 30.21 852 25.16 3.1 37.5 49 -6.7 20
03:40 1022 30.18 852 25.16 3.1 37.6 49 -6.6 20.1
03:45 1022 30.18 852 25.16 3 37.5 50 -6.5 20.4
03:50 1022 30.18 852 25.16 3.1 37.5 49 -6.5 20.3
03:55 1022 30.18 851 25.13 3.4 38.1 47 -6.8 19.8
04:00 1022 30.18 851 25.13 3.5 38.4 48 -6.4 20.5
04:05 1022 30.18 851 25.13 3.6 38.4 48 -6.5 20.4
04:10 1022 30.18 851 25.13 3.6 38.5 47 -6.5 20.3
04:15 1022 30.18 851 25.13 3.7 38.7 46 -6.8 19.8
04:20 1022 30.18 851 25.13 3.8 38.8 46 -6.8 19.7
04:25 1022 30.18 851 25.13 3.8 38.9 46 -6.6 20
04:30 1022 30.18 851 25.13 3.7 38.6 48 -6.5 20.3
04:35 1022 30.18 851 25.13 3.4 38.2 49 -6.4 20.5
04:40 1022 30.18 851 25.13 3.3 38 49 -6.5 20.4
04:45 1022 30.18 851 25.13 3.2 37.7 49 -6.4 20.4
04:50 1022 30.18 851 25.13 3.1 37.6 49 -6.6 20.1
04:55 1022 30.18 851 25.13 3.1 37.6 49 -6.7 20
05:00 1022 30.18 851 25.13 3.2 37.8 47 -6.9 19.6
05:05 1022 30.18 851 25.13 3.3 37.9 49 -6.5 20.2
05:10 1022 30.18 851 25.13 3.1 37.6 49 -6.7 20
05:15 1022 30.18 851 25.13 2.8 37.1 51 -6.3 20.6
05:20 1022 30.18 851 25.13 2.4 36.4 53 -6.2 20.9
05:25 1022 30.18 851 25.13 2.2 36 52 -6.6 20.2
05:30 1022 30.18 851 25.13 2.6 36.6 49 -7 19.4
05:35 1022 30.18 851 25.13 3 37.3 49 -6.7 20
05:40 1022 30.18 851 25.13 3 37.4 50 -6.3 20.6
05:45 1022 30.18 851 25.13 2.8 37 51 -6.5 20.3
05:50 1022 30.18 851 25.13 2.8 37 51 -6.5 20.3
05:55 1022 30.18 851 25.13 2.8 37 50 -6.6 20.2
06:00 1022 30.18 851 25.13 2.9 37.1 50 -6.6 20.2
06:05 1022 30.18 851 25.13 2.8 37 50 -6.6 20.1
06:10 1022 30.18 851 25.13 2.9 37.2 50 -6.5 20.3
06:15 1022 30.18 851 25.13 2.8 37 50 -6.7 20
06:20 1022 30.18 851 25.13 2.8 37.1 50 -6.4 20.4
06:25 1022 30.18 851 25.13 2.8 37 51 -6.5 20.4
06:30 1022 30.18 851 25.13 2.7 36.9 50 -6.6 20.2
06:35 1022 30.18 851 25.13 2.6 36.6 51 -6.5 20.3
06:40 1022 30.18 851 25.13 2.5 36.6 51 -6.6 20.1
06:45 1022 30.18 851 25.13 2.6 36.8 51 -6.6 20.2
06:50 1022 30.18 851 25.13 2.6 36.6 50 -6.7 19.9
06:55 1022 30.18 851 25.13 2.6 36.6 51 -6.5 20.3
07:00 1022 30.18 851 25.13 2.4 36.3 51 -6.7 20
07:05 1022 30.18 851 25.13 2.4 36.3 51 -6.7 20
07:10 1022 30.18 851 25.13 2.4 36.2 52 -6.6 20.2
07:15 1021 30.15 851 25.13 2.5 36.4 52 -6.5 20.3
07:20 1021 30.15 850 25.1 2.8 37.1 48 -7.1 19.3
07:25 1021 30.15 850 25.1 3.5 38.2 46 -7.1 19.2
07:30 1021 30.15 850 25.1 3.8 38.8 45 -7.2 19
07:35 1021 30.15 850 25.1 3.9 39.1 45 -6.9 19.6
07:40 1021 30.15 850 25.1 3.8 38.9 45 -7 19.3
07:45 1021 30.15 850 25.1 3.9 39.1 46 -6.8 19.8
07:50 1021 30.15 851 25.13 3.8 38.8 46 -6.9 19.6
07:55 1022 30.18 851 25.13 3.9 39 46 -6.6 20.2
08:00 1021 30.15 851 25.13 3.9 39 46 -6.6 20.1
08:05 1021 30.15 850 25.1 3.8 38.9 46 -6.7 19.9
08:10 1021 30.15 851 25.13 4 39.2 45 -7 19.4
08:15 1021 30.15 851 25.13 4.2 39.6 44 -6.9 19.5
08:20 1021 30.15 851 25.13 4.4 40 44 -6.8 19.7
08:25 1021 30.15 851 25.13 4.5 40.1 44 -6.8 19.8
08:30 1021 30.15 851 25.13 4.7 40.4 43 -7 19.4
08:35 1021 30.15 851 25.13 4.8 40.6 44 -6.6 20.1
08:40 1021 30.15 851 25.13 4.7 40.4 44 -6.6 20.1
08:45 1021 30.15 851 25.13 4.7 40.5 44 -6.4 20.5
08:50 1021 30.15 851 25.13 4.8 40.6 43 -6.7 20
08:55 1021 30.15 851 25.13 4.8 40.7 44 -6.4 20.5
09:00 1021 30.15 851 25.13 4.8 40.7 44 -6.5 20.2
09:05 1021 30.15 851 25.13 5.1 41.1 42 -6.9 19.5
09:10 1021 30.15 851 25.13 5.3 41.6 41 -6.9 19.6
09:15 1022 30.18 851 25.13 5.3 41.5 41 -6.9 19.6
09:20 1022 30.18 851 25.13 5.4 41.7 41 -6.7 19.9
09:25 1022 30.18 851 25.13 5.4 41.6 41 -6.9 19.6
09:30 1022 30.18 851 25.13 5.3 41.5 42 -6.7 20
09:35 1022 30.18 851 25.13 5.2 41.3 43 -6.5 20.4
09:40 1022 30.18 851 25.13 5.2 41.3 41 -7 19.4
09:45 1022 30.18 851 25.13 5.3 41.5 43 -6.4 20.5
09:50 1022 30.18 851 25.13 5.2 41.4 43 -6.4 20.4
09:55 1022 30.18 851 25.13 5.3 41.6 42 -6.7 19.9
10:00 1022 30.18 851 25.13 5.4 41.8 42 -6.5 20.3
10:05 1022 30.18 851 25.13 5.5 41.9 41 -6.7 19.9
10:10 1022 30.18 851 25.13 5.7 42.2 42 -6.4 20.6
10:15 1022 30.18 851 25.13 5.8 42.4 41 -6.3 20.6
10:20 1022 30.18 851 25.13 5.8 42.5 41 -6.3 20.7
10:25 1022 30.18 851 25.13 5.9 42.7 42 -6.1 21.1
10:30 1022 30.18 851 25.13 5.9 42.7 41 -6.3 20.6
10:35 1022 30.18 851 25.13 6.2 43.1 40 -6.3 20.7
10:40 1022 30.18 851 25.13 6.3 43.4 40 -6.3 20.7
10:45 1022 30.18 851 25.13 6.5 43.7 39 -6.3 20.6
10:50 1022 30.18 851 25.13 6.4 43.5 40 -6.3 20.6
10:55 1022 30.18 851 25.13 6.4 43.5 40 -6.1 21.1
11:00 1022 30.18 851 25.13 6.3 43.4 41 -5.9 21.3
11:05 1022 30.18 851 25.13 6.4 43.5 42 -5.5 22
11:10 1022 30.18 851 25.13 6.4 43.5 41 -5.8 21.5
11:15 1022 30.18 851 25.13 6.5 43.7 40 -6.2 20.9
11:20 1022 30.18 851 25.13 6.6 43.9 42 -5.4 22.2
11:25 1022 30.18 851 25.13 6.5 43.8 44 -4.8 23.4
11:30 1022 30.18 851 25.13 6.2 43.1 45 -4.9 23.2
11:35 1022 30.18 851 25.13 6 42.7 46 -4.9 23.2
11:40 1022 30.18 851 25.13 6.1 42.9 44 -5.2 22.7
11:45 1022 30.18 851 25.13 6.1 43 45 -5.1 22.9
11:50 1022 30.18 851 25.13 6 42.9 45 -5.1 22.9
11:55 1022 30.18 851 25.13 6.2 43.1 43 -5.4 22.3
12:00 1022 30.18 851 25.13 6.3 43.4 44 -5.1 22.8
12:05 1022 30.18 851 25.13 6.5 43.7 44 -5 23
12:10 1022 30.18 851 25.13 6.5 43.6 42 -5.6 21.9
12:15 1022 30.18 851 25.13 6.8 44.3 41 -5.5 22.1
12:20 1022 30.18 851 25.13 7 44.7 36 -7 19.5
12:25 1022 30.18 851 25.13 7.4 45.4 34 -7.3 18.9
12:30 1022 30.18 851 25.13 7.6 45.7 35 -7 19.5
12:35 1022 30.18 851 25.13 7.6 45.7 35 -6.9 19.6
12:40 1022 30.18 851 25.13 7.7 45.8 34 -7.4 18.8
12:45 1022 30.18 851 25.13 7.5 45.5 35 -7.1 19.3
12:50 1021 30.15 851 25.13 7.5 45.5 36 -6.7 19.9
12:55 1021 30.15 851 25.13 7.7 45.9 34 -7.2 19
13:00 1021 30.15 850 25.1 8 46.4 33 -7.3 18.8
13:05 1021 30.15 851 25.13 8.1 46.5 32 -7.7 18.2
13:10 1021 30.15 851 25.13 8.3 46.9 32 -7.4 18.7
13:15 1021 30.15 851 25.13 8.3 46.9 33 -7.1 19.2
13:20 1021 30.15 851 25.13 8.4 47.1 34 -6.8 19.8
13:25 1021 30.15 851 25.13 8.4 47.2 33 -7 19.5
13:30 1021 30.15 851 25.13 8.5 47.3 32 -7.2 19.1
13:35 1021 30.15 851 25.13 8.5 47.3 32 -7.1 19.3
13:40 1021 30.15 850 25.1 8.4 47.1 33 -6.9 19.7
13:45 1021 30.15 850 25.1 8.3 46.9 33 -7.1 19.2
13:50 1021 30.15 850 25.1 8.2 46.8 34 -6.8 19.8
13:55 1021 30.15 851 25.13 8.2 46.7 34 -6.8 19.8
14:00 1021 30.15 851 25.13 8.1 46.5 35 -6.6 20.1
14:05 1021 30.15 851 25.13 7.9 46.3 34 -7 19.4
14:10 1021 30.15 851 25.13 8 46.3 34 -7.1 19.2
14:15 1022 30.18 851 25.13 7.8 46.1 37 -5.8 21.6
14:20 1022 30.18 851 25.13 7.6 45.7 39 -5.3 22.4
14:25 1022 30.18 851 25.13 7.6 45.8 37 -6.2 20.8
14:30 1021 30.15 851 25.13 7.8 46 38 -5.7 21.7
14:35 1021 30.15 851 25.13 7.7 45.9 38 -5.8 21.6
14:40 1021 30.15 851 25.13 7.7 45.9 40 -5.1 22.9
14:45 1021 30.15 851 25.13 7.5 45.4 42 -4.6 23.8
14:50 1021 30.15 851 25.13 7.2 44.9 42 -4.9 23.2
14:55 1021 30.15 851 25.13 7.1 44.8 42 -4.8 23.3
15:00 1021 30.15 851 25.13 7.1 44.7 42 -4.9 23.3
15:05 1021 30.15 851 25.13 7 44.6 44 -4.6 23.8
15:10 1021 30.15 851 25.13 6.9 44.4 44 -4.4 24.1
15:15 1021 30.15 851 25.13 6.6 43.9 45 -4.4 24.1
15:20 1021 30.15 851 25.13 6.5 43.7 44 -4.8 23.3
15:25 1021 30.15 851 25.13 6.5 43.7 43 -5.1 22.8
15:30 1021 30.15 851 25.13 6.7 44 40 -5.9 21.5
15:35 1021 30.15 851 25.13 6.8 44.2 39 -6.1 21
15:40 1021 30.15 851 25.13 6.9 44.4 38 -6.3 20.6
15:45 1021 30.15 851 25.13 6.9 44.4 40 -5.8 21.5
15:50 1021 30.15 850 25.1 6.8 44.3 37 -6.7 19.9
15:55 1021 30.15 850 25.1 6.8 44.2 38 -6.6 20
16:00 1021 30.15 850 25.1 6.8 44.3 39 -6.1 21.1
16:05 1021 30.15 850 25.1 6.8 44.2 40 -6 21.2
16:10 1021 30.15 850 25.1 6.8 44.3 40 -5.9 21.4
16:15 1021 30.15 850 25.1 6.9 44.3 40 -5.8 21.6
16:20 1021 30.15 850 25.1 6.8 44.2 39 -6.3 20.7
16:25 1021 30.15 851 25.13 6.8 44.2 40 -5.8 21.6
16:30 1021 30.15 851 25.13 6.7 44 40 -5.9 21.4
16:35 1021 30.15 851 25.13 6.6 44 39 -6.4 20.5
16:40 1022 30.18 851 25.13 6.8 44.2 39 -6.3 20.7
16:45 1022 30.18 851 25.13 6.8 44.2 37 -7 19.5
16:50 1022 30.18 851 25.13 7 44.5 36 -7.2 19
16:55 1022 30.18 851 25.13 7 44.6 37 -6.8 19.8
17:00 1022 30.18 851 25.13 6.9 44.4 37 -6.8 19.8
17:05 1022 30.18 851 25.13 6.7 44 38 -6.8 19.8
17:10 1022 30.18 851 25.13 6.5 43.8 39 -6.4 20.5
17:15 1022 30.18 851 25.13 6.4 43.5 40 -6.1 21
17:20 1022 30.18 851 25.13 6.1 43 41 -6 21.2
17:25 1022 30.18 851 25.13 6 42.9 42 -5.9 21.4
17:30 1022 30.18 851 25.13 5.9 42.7 43 -5.7 21.7
17:35 1022 30.18 851 25.13 5.8 42.5 42 -6 21.2
17:40 1022 30.18 851 25.13 6 42.8 40 -6.6 20
17:45 1022 30.18 851 25.13 6.3 43.3 38 -6.9 19.6
17:50 1022 30.18 851 25.13 6.3 43.3 39 -6.7 19.9
17:55 1022 30.18 851 25.13 6.2 43.2 41 -6 21.2
18:00 1022 30.18 852 25.16 5.8 42.5 44 -5.4 22.3
18:05 1022 30.18 852 25.16 5.6 42 45 -5.5 22.2
18:10 1022 30.18 852 25.16 5.6 42.1 42 -6.3 20.6
18:15 1022 30.18 852 25.16 6 42.7 40 -6.7 19.9
18:20 1022 30.18 852 25.16 6.2 43.1 40 -6.5 20.2
18:25 1022 30.18 852 25.16 6.2 43.1 40 -6.6 20.2
18:30 1023 30.21 852 25.16 6.1 43 39 -6.8 19.8
18:35 1022 30.18 852 25.16 6 42.7 40 -6.7 20
18:40 1022 30.18 852 25.16 5.8 42.4 40 -6.7 20
18:45 1022 30.18 851 25.13 5.7 42.3 39 -7 19.3
18:50 1022 30.18 852 25.16 5.7 42.3 40 -6.8 19.7
18:55 1022 30.18 852 25.16 5.7 42.3 40 -6.9 19.6
19:00 1022 30.18 852 25.16 5.6 42.1 41 -6.7 20
19:05 1022 30.18 852 25.16 5.5 41.9 40 -6.9 19.6
19:10 1022 30.18 852 25.16 5.5 42 40 -7.1 19.3
19:15 1022 30.18 852 25.16 5.5 42 40 -6.9 19.6
19:20 1023 30.21 852 25.16 5.5 41.9 41 -6.8 19.8
19:25 1023 30.21 852 25.16 5.4 41.8 44 -5.8 21.5
19:30 1023 30.21 852 25.16 5 41.1 45 -5.8 21.6
19:35 1023 30.21 852 25.16 4.9 40.9 44 -6.3 20.7
19:40 1023 30.21 852 25.16 5 41.1 43 -6.4 20.5
19:45 1023 30.21 852 25.16 5.1 41.1 44 -6.1 21.1
19:50 1023 30.21 852 25.16 4.9 40.9 45 -6 21.2
19:55 1023 30.21 852 25.16 4.8 40.7 45 -6.2 20.9
20:00 1023 30.21 852 25.16 4.9 40.7 45 -6.2 20.8
20:05 1023 30.21 852 25.16 4.9 40.8 44 -6.4 20.4
20:10 1023 30.21 852 25.16 4.9 40.8 45 -6.1 21.1
20:15 1023 30.21 852 25.16 4.8 40.6 45 -6 21.2
20:20 1023 30.21 852 25.16 4.7 40.4 47 -5.7 21.7
20:25 1023 30.21 852 25.16 4.5 40.1 47 -5.8 21.6
20:30 1023 30.21 852 25.16 4.5 40.1 47 -6 21.3
20:35 1023 30.21 852 25.16 4.6 40.2 47 -5.9 21.5
20:40 1023 30.21 852 25.16 4.5 40.2 46 -6 21.2
20:45 1023 30.21 852 25.16 4.6 40.2 45 -6.5 20.3
20:50 1023 30.21 852 25.16 4.7 40.4 47 -5.8 21.5
20:55 1023 30.21 852 25.16 4.4 39.9 47 -5.9 21.3
21:00 1023 30.21 852 25.16 4.4 39.9 45 -6.6 20.1
21:05 1023 30.21 852 25.16 4.6 40.3 46 -6.1 21
21:10 1023 30.21 852 25.16 4.8 40.6 44 -6.5 20.3
21:15 1023 30.21 852 25.16 4.9 40.8 44 -6.5 20.4
21:20 1023 30.21 852 25.16 4.8 40.6 45 -6 21.1
21:25 1023 30.21 852 25.16 4.6 40.2 47 -5.8 21.5
21:30 1023 30.21 852 25.16 4.4 39.9 48 -5.8 21.6
21:35 1023 30.21 852 25.16 4.3 39.7 48 -5.8 21.5
21:40 1023 30.21 852 25.16 4.2 39.6 48 -5.7 21.7
21:45 1023 30.21 852 25.16 4.2 39.5 48 -5.8 21.5
21:50 1023 30.21 852 25.16 4.1 39.4 48 -6 21.2
21:55 1023 30.21 852 25.16 4.1 39.4 48 -5.9 21.3
22:00 1023 30.21 852 25.16 4.1 39.4 47 -6.2 20.8
22:05 1023 30.21 852 25.16 4.2 39.5 47 -6.2 20.9
22:10 1023 30.21 852 25.16 4.3 39.7 47 -6.1 21
22:15 1023 30.21 852 25.16 4.2 39.6 47 -6.2 20.9
22:20 1023 30.21 852 25.16 4.2 39.6 47 -6.1 20.9
22:25 1023 30.21 852 25.16 4.2 39.6 46 -6.4 20.5
22:30 1023 30.21 852 25.16 4.3 39.8 46 -6.2 20.8
22:35 1023 30.21 852 25.16 4.3 39.8 46 -6.3 20.7
22:40 1023 30.21 852 25.16 4.2 39.6 47 -6.1 21
22:45 1023 30.21 852 25.16 4.2 39.5 47 -6.1 21
22:50 1023 30.21 852 25.16 4.1 39.3 49 -5.8 21.6
22:55 1023 30.21 852 25.16 4 39.2 48 -6 21.1
23:00 1023 30.21 852 25.16 4.1 39.3 48 -6 21.2
23:05 1023 30.21 852 25.16 4.1 39.4 47 -6.1 21
23:10 1023 30.21 852 25.16 4.1 39.4 47 -6.1 21
23:15 1023 30.21 852 25.16 4.2 39.5 47 -6.2 20.8
23:20 1023 30.21 852 25.16 4.2 39.6 46 -6.3 20.6
23:25 1023 30.21 852 25.16 4.2 39.5 46 -6.5 20.3
23:30 1023 30.21 852 25.16 4.2 39.5 46 -6.5 20.3
23:35 1023 30.21 852 25.16 4.2 39.5 45 -6.7 19.9
23:40 1023 30.21 852 25.16 4.2 39.6 46 -6.5 20.4
23:45 1023 30.21 852 25.16 4.1 39.5 47 -6.3 20.7
23:50 1023 30.21 852 25.16 4 39.2 47 -6.4 20.4
23:55 1023 30.21 852 25.16 4 39.2 47 -6.4 20.5
24:00 1023 30.21 852 25.16 4 39.2 47 -6.3 20.6